Map

Track Data

SID SEASON NUMBER BASIN SUBBASIN NAME ISO_TIME NATURE LAT LON WMO_WIND WMO_PRES WMO_AGENCY TRACK_TYPE DIST2LAND LANDFALL IFLAG USA_AGENCY USA_ATCF_ID USA_LAT USA_LON USA_RECORD USA_STATUS USA_WIND USA_PRES USA_SSHS USA_R34_NE USA_R34_SE USA_R34_SW USA_R34_NW USA_R50_NE USA_R50_SE USA_R50_SW USA_R50_NW USA_R64_NE USA_R64_SE USA_R64_SW USA_R64_NW USA_POCI USA_ROCI USA_RMW USA_EYE TOKYO_LAT TOKYO_LON TOKYO_GRADE TOKYO_WIND TOKYO_PRES TOKYO_R50_DIR TOKYO_R50_LONG TOKYO_R50_SHORT TOKYO_R30_DIR TOKYO_R30_LONG TOKYO_R30_SHORT TOKYO_LAND CMA_LAT CMA_LON CMA_CAT CMA_WIND CMA_PRES HKO_LAT HKO_LON HKO_CAT HKO_WIND HKO_PRES NEWDELHI_LAT NEWDELHI_LON NEWDELHI_GRADE NEWDELHI_WIND NEWDELHI_PRES NEWDELHI_CI NEWDELHI_DP NEWDELHI_POCI REUNION_LAT REUNION_LON REUNION_TYPE REUNION_WIND REUNION_PRES REUNION_TNUM REUNION_CI REUNION_RMW REUNION_R34_NE REUNION_R34_SE REUNION_R34_SW REUNION_R34_NW REUNION_R50_NE REUNION_R50_SE REUNION_R50_SW REUNION_R50_NW REUNION_R64_NE REUNION_R64_SE REUNION_R64_SW REUNION_R64_NW BOM_LAT BOM_LON BOM_TYPE BOM_WIND BOM_PRES BOM_TNUM BOM_CI BOM_RMW BOM_R34_NE BOM_R34_SE BOM_R34_SW BOM_R34_NW BOM_R50_NE BOM_R50_SE BOM_R50_SW BOM_R50_NW BOM_R64_NE BOM_R64_SE BOM_R64_SW BOM_R64_NW BOM_ROCI BOM_POCI BOM_EYE BOM_POS_METHOD BOM_PRES_METHOD NADI_LAT NADI_LON NADI_CAT NADI_WIND NADI_PRES WELLINGTON_LAT WELLINGTON_LON WELLINGTON_WIND WELLINGTON_PRES DS824_LAT DS824_LON DS824_STAGE DS824_WIND DS824_PRES TD9636_LAT TD9636_LON TD9636_STAGE TD9636_WIND TD9636_PRES TD9635_LAT TD9635_LON TD9635_WIND TD9635_PRES TD9635_ROCI NEUMANN_LAT NEUMANN_LON NEUMANN_CLASS NEUMANN_WIND NEUMANN_PRES MLC_LAT MLC_LON MLC_CLASS MLC_WIND MLC_PRES USA_GUST BOM_GUST BOM_GUST_PER REUNION_GUST REUNION_GUST_PER USA_SEAHGT USA_SEARAD_NE USA_SEARAD_SE USA_SEARAD_SW USA_SEARAD_NW STORM_SPEED STORM_DIR
1955159N11251 1955 34 EP MM NOT_NAMED 1955-06-08 00:00:00 TS 11.4000 -109.100 45 hurdat_epa main 979 976 O________OO___ hurdat_epa EP021955 11.4000 -109.100 TS 45 0 11.4000 -109.100 TC 45 11.4000 -109.100 2 8 292
1955159N11251 1955 34 EP MM NOT_NAMED 1955-06-08 03:00:00 TS 11.5403 -109.456 main 997 988 P________PP___ EP021955 11.5276 -109.448 TS 45 0 11.5276 -109.448 TC 45 11.5912 -109.492 2 8 294
1955159N11251 1955 34 EP MM NOT_NAMED 1955-06-08 06:00:00 TS 11.7171 -109.811 45 hurdat_epa main 995 988 O________OP___ hurdat_epa EP021955 11.7000 -109.800 TS 45 0 11.7000 -109.800 TC 45 11.7857 -109.857 2 8 301
1955159N11251 1955 34 EP MM NOT_NAMED 1955-06-08 09:00:00 TS 11.9515 -110.150 main 985 985 P________PP___ EP021955 11.9425 -110.145 TS 45 0 11.9425 -110.145 TC 45 11.9873 -110.169 2 8 310
1955159N11251 1955 34 EP MM NOT_NAMED 1955-06-08 12:00:00 TS 12.2000 -110.400 45 hurdat_epa main 986 975 O________OO___ hurdat_epa EP021955 12.2000 -110.400 TS 45 0 12.2000 -110.400 TC 45 12.2000 -110.400 2 6 323
1955159N11251 1955 34 EP MM NOT_NAMED 1955-06-08 15:00:00 TS 12.4051 -110.502 main 975 957 P________PP___ EP021955 12.3999 -110.495 TS 45 0 12.3999 -110.495 TC 45 12.4257 -110.532 2 4 345
1955159N11251 1955 34 EP MM NOT_NAMED 1955-06-08 18:00:00 TS 12.6114 -110.516 45 hurdat_epa main 957 940 O________OP___ hurdat_epa EP021955 12.6000 -110.500 TS 45 0 12.6000 -110.500 TC 45 12.6572 -110.578 2 5 0
1955159N11251 1955 34 EP MM NOT_NAMED 1955-06-08 21:00:00 TS 12.8570 -110.530 main 931 914 P________PP___ EP021955 12.8500 -110.522 TS 45 0 12.8500 -110.522 TC 45 12.8851 -110.560 2 5 0
1955159N11251 1955 34 EP MM NOT_NAMED 1955-06-09 00:00:00 TS 13.1000 -110.500 45 hurdat_epa main 914 890 O________OO___ hurdat_epa EP021955 13.1000 -110.500 TS 45 0 13.1000 -110.500 TC 45 13.1000 -110.500 2 5 13
1955159N11251 1955 34 EP MM NOT_NAMED 1955-06-09 03:00:00 TS 13.3074 -110.425 main 890 866 P________PP___ EP021955 13.3150 -110.415 TS 45 0 13.3150 -110.415 TC 45 13.2771 -110.464 2 4 24
1955159N11251 1955 34 EP MM NOT_NAMED 1955-06-09 06:00:00 TS 13.4885 -110.318 45 hurdat_epa main 866 851 O________OP___ hurdat_epa EP021955 13.5000 -110.300 TS 45 0 13.5000 -110.300 TC 45 13.4423 -110.390 2 4 29
1955159N11251 1955 34 EP MM NOT_NAMED 1955-06-09 09:00:00 TS 13.6362 -110.232 main 851 827 P________PP___ EP021955 13.6425 -110.222 TS 45 0 13.6425 -110.222 TC 45 13.6114 -110.270 2 4 34
1955159N11251 1955 34 EP MM NOT_NAMED 1955-06-09 12:00:00 TS 13.8000 -110.100 45 hurdat_epa main 827 796 O________OO___ hurdat_epa EP021955 13.8000 -110.100 TS 45 0 13.8000 -110.100 TC 45 13.8000 -110.100 2 5 41
1955159N11251 1955 34 EP MM NOT_NAMED 1955-06-09 15:00:00 TS 14.0337 -109.874 main 796 749 P________PP___ EP021955 14.0350 -109.880 TS 45 0 14.0350 -109.880 TC 45 14.0287 -109.851 2 7 45
1955159N11251 1955 34 EP MM NOT_NAMED 1955-06-09 18:00:00 TS 14.2956 -109.592 45 hurdat_epa main 749 711 O________OP___ hurdat_epa EP021955 14.3000 -109.600 TS 45 0 14.3000 -109.600 TC 45 14.2779 -109.558 2 8 48
1955159N11251 1955 34 EP MM NOT_NAMED 1955-06-09 21:00:00 TS 14.5477 -109.280 main 711 664 P________PP___ EP021955 14.5501 -109.285 TS 45 0 14.5501 -109.285 TC 45 14.5381 -109.261 2 8 49
1955159N11251 1955 34 EP MM NOT_NAMED 1955-06-10 00:00:00 TS 14.8000 -109.000 45 hurdat_epa main 664 633 O________OO___ hurdat_epa EP021955 14.8000 -109.000 TS 45 0 14.8000 -109.000 TC 45 14.8000 -109.000 2 7 42
1955159N11251 1955 34 EP MM NOT_NAMED 1955-06-10 03:00:00 TS 15.0467 -108.815 main 633 601 P________PP___ EP021955 15.0499 -108.820 TS 45 0 15.0499 -108.820 TC 45 15.0336 -108.795 2 6 31
1955159N11251 1955 34 EP MM NOT_NAMED 1955-06-10 06:00:00 TS 15.2940 -108.688 45 hurdat_epa main 601 577 O________OP___ hurdat_epa EP021955 15.3000 -108.700 TS 45 0 15.3000 -108.700 TC 45 15.2698 -108.638 2 5 27
1955159N11251 1955 34 EP MM NOT_NAMED 1955-06-10 09:00:00 TS 15.5322 -108.563 main 577 546 P________PP___ EP021955 15.5350 -108.570 TS 45 0 15.5350 -108.570 TC 45 15.5211 -108.536 2 5 20
1955159N11251 1955 34 EP MM NOT_NAMED 1955-06-10 12:00:00 TS 15.8000 -108.500 45 hurdat_epa main 546 523 O________OO___ hurdat_epa EP021955 15.8000 -108.500 TS 45 0 15.8000 -108.500 TC 45 15.8000 -108.500 2 6 4
1955159N11251 1955 34 EP MM NOT_NAMED 1955-06-10 15:00:00 TS 16.1310 -108.517 main 523 499 P________PP___ EP021955 16.1350 -108.513 TS 45 0 16.1350 -108.513 TC 45 16.1151 -108.534 2 7 352
1955159N11251 1955 34 EP MM NOT_NAMED 1955-06-10 18:00:00 TS 16.4920 -108.605 45 hurdat_epa main 499 483 O________OP___ hurdat_epa EP021955 16.5000 -108.600 TS 45 0 16.5000 -108.600 TC 45 16.4602 -108.624 2 8 344
1955159N11251 1955 34 EP MM NOT_NAMED 1955-06-10 21:00:00 TS 16.8491 -108.740 main 483 470 P________PP___ EP021955 16.8550 -108.737 TS 45 0 16.8550 -108.737 TC 45 16.8252 -108.752 2 8 338
1955159N11251 1955 34 EP MM NOT_NAMED 1955-06-11 00:00:00 TS 17.2000 -108.900 45 hurdat_epa main 471 O________OO___ hurdat_epa EP021955 17.2000 -108.900 TS 45 0 17.2000 -108.900 TC 45 17.2000 -108.900 2 8 336

About IBTrACS Database

This database is a web-friendly format of International Best Track Archive for Climate Stewardship (IBTrACS), a global best track data archive curated by NOAA dating back to 1842.

Updated: 2021-10-25